| time (UTC) | temp F | wind direction | speed MPH | gust MPH | rain 1hr in | rain 24hr in | rain mn in | humidity % | barometer mb |
| 20260509040528 | 46 | 45 | 5.0 | 6.0 | 0.00 | 0.00 | 0.00 | 87 | |
| 20260509035542 | 46 | 44 | 3.0 | 5.0 | 0.00 | 0.00 | 0.00 | 87 | |
| 20260509034527 | 46 | 44 | 4.0 | 6.0 | 0.00 | 0.00 | 0.00 | 87 | |
| 20260509033556 | 46 | 48 | 5.0 | 6.0 | 0.00 | 0.00 | 0.00 | 87 | |
| 20260509032539 | 45 | 57 | 4.0 | 5.0 | 0.00 | 0.00 | 0.00 | 87 | |
| 20260509031552 | 46 | 59 | 2.0 | 4.0 | 0.00 | 0.00 | 0.00 | 87 | |
| 20260509030524 | 46 | 60 | 2.0 | 5.0 | 0.00 | 0.00 | 0.00 | 87 | |
| 20260509025557 | 46 | 60 | 4.0 | 5.0 | 0.00 | 0.00 | 0.00 | 87 | |
| 20260509024555 | 46 | 61 | 3.0 | 5.0 | 0.00 | 0.00 | 0.00 | 87 | |
| 20260509023526 | 46 | 62 | 3.0 | 5.0 | 0.00 | 0.00 | 0.00 | 86 | |
| 20260509022530 | 47 | 65 | 3.0 | 5.0 | 0.00 | 0.00 | 0.00 | 85 | |
| 20260509021543 | 47 | 65 | 2.0 | 3.0 | 0.00 | 0.00 | 0.00 | 85 | |
| 20260509020526 | 48 | 65 | 2.0 | 3.0 | 0.00 | 0.00 | 0.00 | 85 | |
| 20260509015540 | 48 | 65 | 2.0 | 3.0 | 0.00 | 0.00 | 0.00 | 84 | |
| 20260509014524 | 49 | 65 | 3.0 | 5.0 | 0.00 | 0.00 | 0.00 | 84 | |
| 20260509013537 | 49 | 65 | 4.0 | 6.0 | 0.00 | 0.00 | 0.00 | 85 | |
| 20260509012536 | 49 | 71 | 4.0 | 5.0 | 0.00 | 0.00 | 0.00 | 85 | |
| 20260509011529 | 49 | 71 | 5.0 | 5.0 | 0.00 | 0.00 | 0.00 | 85 | |
| 20260509010534 | 49 | 71 | 5.0 | 5.0 | 0.00 | 0.00 | 0.00 | 85 | |
| 20260509005547 | 49 | 71 | 5.0 | 6.0 | 0.00 | 0.00 | 0.00 | 85 | |
| 20260509004551 | 49 | 72 | 5.0 | 6.0 | 0.00 | 0.00 | 0.00 | 86 | |
| 20260509003524 | 49 | 67 | 5.0 | 5.0 | 0.00 | 0.00 | 0.00 | 85 | |
| 20260509002527 | 49 | 63 | 4.0 | 5.0 | 0.00 | 0.00 | 0.00 | 85 | |
| 20260509001557 | 50 | 63 | 4.0 | 5.0 | 0.00 | 0.00 | 0.00 | 85 | |
| 20260509000549 | 50 | 63 | 4.0 | 5.0 | 0.00 | 0.00 | 0.00 | 85 | |
| 20260508235602 | 50 | 63 | 4.0 | 5.0 | 0.00 | 0.00 | 0.00 | 85 | |
| 20260508234524 | 50 | 63 | 5.0 | 5.0 | 0.00 | 0.00 | 0.00 | 85 | |
| 20260508233539 | 50 | 63 | 4.0 | 5.0 | 0.00 | 0.00 | 0.00 | 84 | |
| 20260508232522 | 51 | 63 | 4.0 | 5.0 | 0.00 | 0.00 | 0.00 | 84 | |
| 20260508231526 | 51 | 63 | 4.0 | 5.0 | 0.00 | 0.00 | 0.00 | 84 | |
| 20260508230535 | 51 | 63 | 5.0 | 6.0 | 0.00 | 0.00 | 0.00 | 84 | |
| 20260508225518 | 51 | 63 | 4.0 | 6.0 | 0.00 | 0.00 | 0.00 | 83 | |
| 20260508224531 | 52 | 63 | 5.0 | 6.0 | 0.00 | 0.00 | 0.00 | 82 | |
| 20260508223536 | 52 | 61 | 4.0 | 6.0 | 0.00 | 0.00 | 0.00 | 82 | |
| 20260508222528 | 52 | 51 | 5.0 | 6.0 | 0.00 | 0.00 | 0.00 | 81 | |
| 20260508221532 | 53 | 53 | 5.0 | 6.0 | 0.00 | 0.00 | 0.00 | 81 | |
| 20260508220525 | 53 | 53 | 5.0 | 6.0 | 0.00 | 0.00 | 0.00 | 80 | |
| 20260508215529 | 54 | 51 | 5.0 | 7.0 | 0.00 | 0.00 | 0.00 | 79 | |
| 20260508214559 | 54 | 52 | 4.0 | 6.0 | 0.00 | 0.00 | 0.00 | 78 | |
| 20260508213550 | 55 | 51 | 5.0 | 8.0 | 0.00 | 0.00 | 0.00 | 78 | |
| 20260508212533 | 55 | 53 | 6.0 | 9.0 | 0.00 | 0.00 | 0.00 | 78 | |
| 20260508211527 | 56 | 49 | 7.0 | 11.0 | 0.00 | 0.00 | 0.00 | 77 | |
| 20260508210531 | 56 | 56 | 8.0 | 10.0 | 0.00 | 0.00 | 0.00 | 78 | |
| 20260508205546 | 56 | 34 | 7.0 | 11.0 | 0.00 | 0.00 | 0.00 | 78 | |
| 20260508204529 | 56 | 44 | 7.0 | 10.0 | 0.00 | 0.00 | 0.00 | 78 | |
| 20260508203538 | 56 | 13 | 6.0 | 8.0 | 0.00 | 0.00 | 0.00 | 78 | |
| 20260508202521 | 56 | 22 | 5.0 | 7.0 | 0.00 | 0.00 | 0.00 | 77 | |
| 20260508201524 | 57 | 19 | 4.0 | 7.0 | 0.00 | 0.00 | 0.00 | 76 | |
| 20260508200538 | 57 | 28 | 5.0 | 9.0 | 0.00 | 0.00 | 0.00 | 76 | |
| 20260508195521 | 58 | 28 | 5.0 | 8.0 | 0.00 | 0.00 | 0.00 | 74 | |
| 20260508194534 | 59 | 16 | 5.0 | 7.0 | 0.00 | 0.00 | 0.00 | 72 | |
| 20260508193538 | 59 | 18 | 5.0 | 10.0 | 0.00 | 0.00 | 0.00 | 71 | |
| 20260508192532 | 60 | 28 | 7.0 | 10.0 | 0.00 | 0.00 | 0.00 | 69 | |
| 20260508191533 | 61 | 27 | 6.0 | 10.0 | 0.00 | 0.00 | 0.00 | 66 | |
| 20260508190527 | 62 | 13 | 7.0 | 11.0 | 0.00 | 0.00 | 0.00 | 61 | |
| 20260508185530 | 62 | 30 | 9.0 | 13.0 | 0.00 | 0.00 | 0.00 | 58 | |
| 20260508184544 | 63 | 57 | 8.0 | 11.0 | 0.00 | 0.00 | 0.00 | 58 | |
| 20260508183527 | 63 | 49 | 8.0 | 12.0 | 0.00 | 0.00 | 0.00 | 58 | |
| 20260508182539 | 63 | 46 | 6.0 | 12.0 | 0.00 | 0.00 | 0.00 | 58 | |
| 20260508181523 | 63 | 42 | 8.0 | 12.0 | 0.00 | 0.00 | 0.00 | 58 | |
| 20260508180526 | 63 | 59 | 8.0 | 14.0 | 0.00 | 0.00 | 0.00 | 58 | |
| 20260508175535 | 63 | 40 | 6.0 | 9.0 | 0.00 | 0.00 | 0.00 | 59 | |
| 20260508174520 | 63 | 49 | 8.0 | 10.0 | 0.00 | 0.00 | 0.00 | 60 | |
| 20260508173533 | 63 | 82 | 4.0 | 5.0 | 0.00 | 0.00 | 0.00 | 62 | |
| 20260508172537 | 63 | 108 | 3.0 | 5.0 | 0.00 | 0.00 | 0.00 | 63 | |
| 20260508171530 | 63 | 103 | 4.0 | 7.0 | 0.00 | 0.00 | 0.00 | 61 | |
| 20260508170534 | 64 | 101 | 5.0 | 7.0 | 0.00 | 0.00 | 0.00 | 59 | |
| 20260508165528 | 65 | 92 | 6.0 | 8.0 | 0.00 | 0.00 | 0.00 | 57 | |
| 20260508164531 | 66 | 77 | 6.0 | 9.0 | 0.00 | 0.00 | 0.00 | 56 | |
| 20260508163540 | 65 | 83 | 7.0 | 10.0 | 0.00 | 0.00 | 0.00 | 58 | |
| 20260508162523 | 65 | 34 | 4.0 | 7.0 | 0.00 | 0.00 | 0.00 | 57 | |
| 20260508161558 | 65 | 69 | 3.0 | 8.0 | 0.00 | 0.00 | 0.00 | 57 | |
| 20260508160520 | 65 | 40 | 3.0 | 7.0 | 0.00 | 0.00 | 0.00 | 58 | |
| 20260508155533 | 65 | 89 | 2.0 | 6.0 | 0.00 | 0.00 | 0.00 | 59 | |
| 20260508154536 | 64 | 92 | 4.0 | 6.0 | 0.00 | 0.00 | 0.00 | 60 | |
| 20260508153549 | 64 | 98 | 5.0 | 9.0 | 0.00 | 0.00 | 0.00 | 60 | |
| 20260508152528 | 64 | 77 | 6.0 | 9.0 | 0.00 | 0.00 | 0.00 | 60 | |
| 20260508151520 | 64 | 88 | 6.0 | 10.0 | 0.00 | 0.00 | 0.00 | 59 | |
| 20260508150524 | 64 | 78 | 5.0 | 10.0 | 0.00 | 0.00 | 0.00 | 57 | |
| 20260508145538 | 64 | 108 | 5.0 | 9.0 | 0.00 | 0.00 | 0.00 | 61 | |
| 20260508144542 | 64 | 86 | 8.0 | 13.0 | 0.00 | 0.00 | 0.00 | 59 | |
| 20260508143555 | 64 | 99 | 5.0 | 10.0 | 0.00 | 0.00 | 0.00 | 58 | |
| 20260508142526 | 64 | 82 | 5.0 | 12.0 | 0.00 | 0.00 | 0.00 | 59 | |
| 20260508141526 | 65 | 92 | 6.0 | 13.0 | 0.00 | 0.00 | 0.00 | 57 | |
| 20260508140521 | 65 | 74 | 9.0 | 14.0 | 0.00 | 0.00 | 0.00 | 57 | |
| 20260508135523 | 65 | 88 | 9.0 | 15.0 | 0.00 | 0.00 | 0.00 | 56 | |
| 20260508134536 | 65 | 78 | 10.0 | 15.0 | 0.00 | 0.00 | 0.00 | 56 | |
| 20260508133541 | 65 | 86 | 7.0 | 14.0 | 0.00 | 0.00 | 0.00 | 57 | |
| 20260508132534 | 66 | 80 | 7.0 | 13.0 | 0.00 | 0.00 | 0.00 | 58 | |
| 20260508131547 | 66 | 96 | 11.0 | 14.0 | 0.00 | 0.00 | 0.00 | 58 | |
| 20260508130527 | 65 | 88 | 7.0 | 14.0 | 0.00 | 0.00 | 0.00 | 58 | |
| 20260508125532 | 66 | 82 | 9.0 | 12.0 | 0.00 | 0.00 | 0.00 | 58 | |
| 20260508124524 | 65 | 117 | 9.0 | 14.0 | 0.00 | 0.00 | 0.00 | 60 | |
| 20260508123528 | 65 | 109 | 8.0 | 12.0 | 0.00 | 0.00 | 0.00 | 56 | |
| 20260508122542 | 66 | 124 | 9.0 | 12.0 | 0.00 | 0.00 | 0.00 | 60 | |
| 20260508121555 | 65 | 80 | 9.0 | 16.0 | 0.00 | 0.00 | 0.00 | 57 | |
| 20260508120538 | 66 | 75 | 9.0 | 14.0 | 0.00 | 0.00 | 0.00 | 60 | |
| 20260508115526 | 66 | 102 | 9.0 | 12.0 | 0.00 | 0.00 | 0.00 | 55 | |
| 20260508114600 | 65 | 78 | 4.0 | 12.0 | 0.00 | 0.00 | 0.00 | 59 | |
| 20260508113522 | 64 | 80 | 8.0 | 12.0 | 0.00 | 0.00 | 0.00 | 61 | |
| 20260508112527 | 65 | 113 | 9.0 | 15.0 | 0.00 | 0.00 | 0.00 | 62 | |
| 20260508111519 | 64 | 76 | 3.0 | 13.0 | 0.00 | 0.00 | 0.00 | 57 | |
| 20260508110524 | 63 | 84 | 7.0 | 11.0 | 0.00 | 0.00 | 0.00 | 61 | |
| 20260508105536 | 64 | 91 | 10.0 | 15.0 | 0.00 | 0.00 | 0.00 | 58 | |
| 20260508104520 | 65 | 63 | 9.0 | 13.0 | 0.00 | 0.00 | 0.00 | 61 | |
| 20260508103548 | 64 | 111 | 6.0 | 12.0 | 0.00 | 0.00 | 0.00 | 66 | |
| 20260508102540 | 63 | 90 | 6.0 | 11.0 | 0.00 | 0.00 | 0.00 | 66 | |
| 20260508101552 | 63 | 134 | 6.0 | 12.0 | 0.00 | 0.00 | 0.00 | 67 | |
| 20260508100535 | 63 | 124 | 5.0 | 10.0 | 0.00 | 0.00 | 0.00 | 64 | |
| 20260508095547 | 63 | 112 | 9.0 | 11.0 | 0.00 | 0.00 | 0.00 | 67 | |
| 20260508094530 | 62 | 117 | 6.0 | 10.0 | 0.00 | 0.00 | 0.00 | 69 | |
| 20260508093540 | 63 | 98 | 7.0 | 11.0 | 0.00 | 0.00 | 0.00 | 68 | |
| 20260508092523 | 62 | 53 | 7.0 | 10.0 | 0.00 | 0.00 | 0.00 | 69 | |
| 20260508091527 | 62 | 102 | 6.0 | 8.0 | 0.00 | 0.00 | 0.00 | 71 | |
| 20260508090541 | 62 | 113 | 5.0 | 8.0 | 0.00 | 0.00 | 0.00 | 71 | |
| 20260508085533 | 61 | 96 | 4.0 | 6.0 | 0.00 | 0.00 | 0.00 | 71 | |
| 20260508084607 | 61 | 97 | 2.0 | 6.0 | 0.00 | 0.00 | 0.00 | 71 | |
| 20260508083529 | 60 | 113 | 1.0 | 5.0 | 0.00 | 0.00 | 0.00 | 72 | |
| 20260508082529 | 59 | 107 | 2.0 | 2.0 | 0.00 | 0.00 | 0.00 | 72 | |
| 20260508081522 | 58 | 106 | 1.0 | 4.0 | 0.00 | 0.00 | 0.00 | 74 | |
| 20260508080525 | 58 | 106 | 2.0 | 5.0 | 0.00 | 0.00 | 0.00 | 77 | |
| 20260508075538 | 57 | 107 | 3.0 | 5.0 | 0.00 | 0.00 | 0.00 | 78 | |
| 20260508074541 | 57 | 107 | 2.0 | 5.0 | 0.00 | 0.00 | 0.00 | 78 | |
| 20260508073554 | 56 | 99 | 2.0 | 5.0 | 0.00 | 0.00 | 0.00 | 80 | |
| 20260508072522 | 56 | 97 | 4.0 | 6.0 | 0.00 | 0.00 | 0.00 | 81 | |
| 20260508071521 | 55 | 87 | 4.0 | 5.0 | 0.00 | 0.00 | 0.00 | 82 | |
| 20260508070555 | 55 | 84 | 2.0 | 5.0 | 0.00 | 0.00 | 0.00 | 83 | |
| 20260508065547 | 54 | 83 | 4.0 | 5.0 | 0.00 | 0.00 | 0.00 | 84 | |
| 20260508064600 | 54 | 77 | 3.0 | 5.0 | 0.00 | 0.00 | 0.00 | 86 | |
| 20260508063543 | 53 | 66 | 4.0 | 5.0 | 0.00 | 0.00 | 0.00 | 87 | |
| 20260508062531 | 53 | 44 | 1.0 | 2.0 | 0.00 | 0.00 | 0.00 | 88 | |
| 20260508061605 | 52 | 44 | 2.0 | 3.0 | 0.00 | 0.00 | 0.00 | 89 | |
| 20260508060527 | 52 | 44 | 2.0 | 4.0 | 0.00 | 0.00 | 0.00 | 90 | |
| 20260508055540 | 51 | 44 | 3.0 | 5.0 | 0.00 | 0.00 | 0.00 | 90 | |
| 20260508054523 | 51 | 42 | 2.0 | 3.0 | 0.00 | 0.00 | 0.00 | 90 | |
| 20260508053527 | 50 | 42 | 1.0 | 2.0 | 0.00 | 0.00 | 0.00 | 90 | |
| 20260508052520 | 50 | 42 | 2.0 | 4.0 | 0.00 | 0.00 | 0.00 | 90 | |
| 20260508051524 | 50 | 41 | 2.0 | 3.0 | 0.00 | 0.00 | 0.00 | 90 | |
| 20260508050533 | 50 | 41 | 2.0 | 4.0 | 0.00 | 0.00 | 0.00 | 90 | |
| 20260508045536 | 49 | 40 | 1.0 | 4.0 | 0.00 | 0.00 | 0.00 | 90 | |
| 20260508044550 | 49 | 40 | 0.0 | 2.0 | 0.00 | 0.00 | 0.00 | 90 | |
| 20260508043542 | 49 | 40 | 3.0 | 4.0 | 0.00 | 0.00 | 0.00 | 90 | |
| 20260508042525 | 49 | 38 | 0.0 | 0.0 | 0.00 | 0.00 | 0.00 | 90 | |
| 20260508041539 | 49 | 38 | 0.0 | 0.0 | 0.00 | 0.00 | 0.00 | 90 |